地図

経路データ

SID SEASON NUMBER BASIN SUBBASIN NAME ISO_TIME NATURE LAT LON WMO_WIND WMO_PRES WMO_AGENCY TRACK_TYPE DIST2LAND LANDFALL IFLAG USA_AGENCY USA_ATCF_ID USA_LAT USA_LON USA_RECORD USA_STATUS USA_WIND USA_PRES USA_SSHS USA_R34_NE USA_R34_SE USA_R34_SW USA_R34_NW USA_R50_NE USA_R50_SE USA_R50_SW USA_R50_NW USA_R64_NE USA_R64_SE USA_R64_SW USA_R64_NW USA_POCI USA_ROCI USA_RMW USA_EYE TOKYO_LAT TOKYO_LON TOKYO_GRADE TOKYO_WIND TOKYO_PRES TOKYO_R50_DIR TOKYO_R50_LONG TOKYO_R50_SHORT TOKYO_R30_DIR TOKYO_R30_LONG TOKYO_R30_SHORT TOKYO_LAND CMA_LAT CMA_LON CMA_CAT CMA_WIND CMA_PRES HKO_LAT HKO_LON HKO_CAT HKO_WIND HKO_PRES NEWDELHI_LAT NEWDELHI_LON NEWDELHI_GRADE NEWDELHI_WIND NEWDELHI_PRES NEWDELHI_CI NEWDELHI_DP NEWDELHI_POCI REUNION_LAT REUNION_LON REUNION_TYPE REUNION_WIND REUNION_PRES REUNION_TNUM REUNION_CI REUNION_RMW REUNION_R34_NE REUNION_R34_SE REUNION_R34_SW REUNION_R34_NW REUNION_R50_NE REUNION_R50_SE REUNION_R50_SW REUNION_R50_NW REUNION_R64_NE REUNION_R64_SE REUNION_R64_SW REUNION_R64_NW BOM_LAT BOM_LON BOM_TYPE BOM_WIND BOM_PRES BOM_TNUM BOM_CI BOM_RMW BOM_R34_NE BOM_R34_SE BOM_R34_SW BOM_R34_NW BOM_R50_NE BOM_R50_SE BOM_R50_SW BOM_R50_NW BOM_R64_NE BOM_R64_SE BOM_R64_SW BOM_R64_NW BOM_ROCI BOM_POCI BOM_EYE BOM_POS_METHOD BOM_PRES_METHOD NADI_LAT NADI_LON NADI_CAT NADI_WIND NADI_PRES WELLINGTON_LAT WELLINGTON_LON WELLINGTON_WIND WELLINGTON_PRES DS824_LAT DS824_LON DS824_STAGE DS824_WIND DS824_PRES TD9636_LAT TD9636_LON TD9636_STAGE TD9636_WIND TD9636_PRES TD9635_LAT TD9635_LON TD9635_WIND TD9635_PRES TD9635_ROCI NEUMANN_LAT NEUMANN_LON NEUMANN_CLASS NEUMANN_WIND NEUMANN_PRES MLC_LAT MLC_LON MLC_CLASS MLC_WIND MLC_PRES USA_GUST BOM_GUST BOM_GUST_PER REUNION_GUST REUNION_GUST_PER USA_SEAHGT USA_SEARAD_NE USA_SEARAD_SE USA_SEARAD_SW USA_SEARAD_NW STORM_SPEED STORM_DIR
1971254N27288 1971 114 NA NA HEIDI 1971-09-11 00:00:00 TS 27.1000 -72.0000 30 hurdat_atl main 638 629 O_____________ hurdat_atl AL171971 27.1000 -72.0000 TD 30 -1 2 285
1971254N27288 1971 114 NA NA HEIDI 1971-09-11 03:00:00 TS 27.1325 -72.1300 main 629 614 P_____________ AL171971 27.1325 -72.1300 TD 30 -1 3 291
1971254N27288 1971 114 NA NA HEIDI 1971-09-11 06:00:00 TS 27.2000 -72.3000 30 hurdat_atl main 614 600 O_____________ hurdat_atl AL171971 27.2000 -72.3000 TD 30 -1 4 298
1971254N27288 1971 114 NA NA HEIDI 1971-09-11 09:00:00 TS 27.3275 -72.5350 main 600 583 P_____________ AL171971 27.3275 -72.5350 TD 30 -1 5 304
1971254N27288 1971 114 NA NA HEIDI 1971-09-11 12:00:00 TS 27.5000 -72.8000 30 hurdat_atl main 583 570 O_____________ hurdat_atl AL171971 27.5000 -72.8000 TD 30 -1 6 307
1971254N27288 1971 114 NA NA HEIDI 1971-09-11 15:00:00 TS 27.6700 -73.0502 main 567 562 P_____________ AL171971 27.6700 -73.0502 TD 30 -1 6 312
1971254N27288 1971 114 NA NA HEIDI 1971-09-11 18:00:00 TS 27.9000 -73.3000 30 hurdat_atl main 562 557 O_____________ hurdat_atl AL171971 27.9000 -73.3000 TD 30 -1 7 321
1971254N27288 1971 114 NA NA HEIDI 1971-09-11 21:00:00 TS 28.2351 -73.5723 main 557 557 P_____________ AL171971 28.2351 -73.5723 TD 30 -1 8 328
1971254N27288 1971 114 NA NA HEIDI 1971-09-12 00:00:00 TS 28.6000 -73.8000 30 1006 hurdat_atl main 570 570 O_____________ hurdat_atl AL171971 28.6000 -73.8000 TD 30 1006 -1 7 334
1971254N27288 1971 114 NA NA HEIDI 1971-09-12 03:00:00 TS 28.8924 -73.9451 main 587 580 P_____________ AL171971 28.8924 -73.9451 TD 35 1004 0 6 344
1971254N27288 1971 114 NA NA HEIDI 1971-09-12 06:00:00 TS 29.2000 -74.0000 40 hurdat_atl main 604 604 I_____________ hurdat_atl AL171971 29.2000 -74.0000 TS 40 1003 0 7 357
1971254N27288 1971 114 NA NA HEIDI 1971-09-12 09:00:00 TS 29.5849 -73.9949 main 610 578 P_____________ AL171971 29.5849 -73.9949 TS 42 1002 0 8 6
1971254N27288 1971 114 NA NA HEIDI 1971-09-12 12:00:00 TS 30.0000 -73.9000 45 1001 hurdat_atl main 578 541 O_____________ hurdat_atl AL171971 30.0000 -73.9000 TS 45 1001 0 8 15
1971254N27288 1971 114 NA NA HEIDI 1971-09-12 15:00:00 TS 30.3924 -73.7448 main 546 517 P_____________ AL171971 30.3924 -73.7448 TS 45 999 0 9 23
1971254N27288 1971 114 NA NA HEIDI 1971-09-12 18:00:00 TS 30.8000 -73.5000 45 998 hurdat_atl main 517 496 O_____________ hurdat_atl AL171971 30.8000 -73.5000 TS 45 998 0 10 30
1971254N27288 1971 114 NA NA HEIDI 1971-09-12 21:00:00 TS 31.2350 -73.1798 main 496 479 P_____________ AL171971 31.2350 -73.1798 TS 45 0 11 34
1971254N27288 1971 114 NA NA HEIDI 1971-09-13 00:00:00 TS 31.7000 -72.8000 45 hurdat_atl main 479 469 O_____________ hurdat_atl AL171971 31.7000 -72.8000 TS 45 0 12 35
1971254N27288 1971 114 NA NA HEIDI 1971-09-13 03:00:00 TS 32.1850 -72.3998 main 469 462 P_____________ AL171971 32.1850 -72.3998 TS 45 0 12 34
1971254N27288 1971 114 NA NA HEIDI 1971-09-13 06:00:00 TS 32.7000 -72.0000 45 hurdat_atl main 466 452 O_____________ hurdat_atl AL171971 32.7000 -72.0000 TS 45 0 12 31
1971254N27288 1971 114 NA NA HEIDI 1971-09-13 09:00:00 TS 33.2121 -71.6636 main 452 439 P_____________ AL171971 33.2121 -71.6636 TS 45 0 12 28
1971254N27288 1971 114 NA NA HEIDI 1971-09-13 12:00:00 TS 33.8000 -71.3000 45 998 hurdat_atl main 442 439 O_____________ hurdat_atl AL171971 33.8000 -71.3000 TS 45 998 0 15 30
1971254N27288 1971 114 NA NA HEIDI 1971-09-13 15:00:00 TS 34.4980 -70.7786 main 450 450 P_____________ AL171971 34.4980 -70.7786 TS 47 997 0 17 29
1971254N27288 1971 114 NA NA HEIDI 1971-09-13 18:00:00 TS 35.3000 -70.3000 50 996 hurdat_atl main 472 471 O_____________ hurdat_atl AL171971 35.3000 -70.3000 TS 50 996 0 17 19
1971254N27288 1971 114 NA NA HEIDI 1971-09-13 21:00:00 TS 36.1396 -70.0675 main 486 473 P_____________ AL171971 36.1396 -70.0675 TS 52 0 18 10
1971254N27288 1971 114 NA NA HEIDI 1971-09-14 00:00:00 TS 37.1000 -69.9000 55 hurdat_atl main 466 379 O_____________ hurdat_atl AL171971 37.1000 -69.9000 TS 55 0 21 10
1971254N27288 1971 114 NA NA HEIDI 1971-09-14 03:00:00 TS 38.2201 -69.6080 main 379 271 P_____________ AL171971 38.2201 -69.6080 TS 52 0 24 12
1971254N27288 1971 114 NA NA HEIDI 1971-09-14 06:00:00 TS 39.4000 -69.3000 50 hurdat_atl main 261 157 O_____________ hurdat_atl AL171971 39.4000 -69.3000 TS 50 0 23 11
1971254N27288 1971 114 NA NA HEIDI 1971-09-14 09:00:00 TS 40.5150 -69.0128 main 157 101 P_____________ AL171971 40.5150 -69.0128 TS 50 0 22 10
1971254N27288 1971 114 NA NA HEIDI 1971-09-14 12:00:00 TS 41.6000 -68.8000 50 hurdat_atl main 99 99 O_____________ hurdat_atl AL171971 41.6000 -68.8000 TS 50 0 22 6
1971254N27288 1971 114 NA NA HEIDI 1971-09-14 15:00:00 TS 42.6798 -68.6897 main 138 52 P_____________ AL171971 42.6798 -68.6897 TS 45 0 21 2
1971254N27288 1971 114 NA NA HEIDI 1971-09-14 18:00:00 TS 43.7000 -68.7000 40 998 hurdat_atl main 45 0 O_____________ hurdat_atl AL171971 43.7000 -68.7000 TS 40 998 0 20 357
1971254N27288 1971 114 NA NA HEIDI 1971-09-14 21:00:00 TS 44.6276 -68.8187 main 0 0 P_____________ AL171971 44.6276 -68.8187 TS 32 1000 -1 18 353
1971254N27288 1971 114 NA NA HEIDI 1971-09-15 00:00:00 TS 45.5000 -69.0000 25 1002 hurdat_atl main 0 O_____________ hurdat_atl AL171971 45.5000 -69.0000 TD 25 1002 -1 18 352

IBTrACS Databaseについて

本データベースは、米国NOAAが公開する1842年以降の世界の熱帯低気圧のベストトラックデータアーカイブInternational Best Track Archive for Climate Stewardship (IBTrACS)を、ウェブで閲覧しやすい形式に変換したものです。

最終更新日:2021-12-06